FNG8 EFTU-EFTU

Flight info

Callsign FNG8
Flight time 3h 19m
Altitude 3500
Route JUTKI JURMO JUTKI
Aircraft D228/L-SDFGHILORVY/S

Departure

Time 2026-04-23 12:03
Airport Turku Airport (EFTU)

Arrival

Time 2026-04-23 15:22
Airport Turku Airport (EFTU)
Time Latitude Longitude Altitude Speed Heading
2026-04-23 11:28 60.51175 22.26616 158 ft 0 kts 133°
2026-04-23 11:56 60.51174 22.26618 158 ft 2 kts 133°
2026-04-23 11:56 60.51173 22.26628 158 ft 0 kts 27°
2026-04-23 11:56 60.51179 22.26615 158 ft 6 kts 300°
2026-04-23 11:56 60.51212 22.26536 153 ft 6 kts 323°
2026-04-23 11:57 60.51267 22.26505 147 ft 0 kts
2026-04-23 11:57 60.51272 22.26507 147 ft 3 kts 13°
2026-04-23 11:57 60.51297 22.26574 144 ft 10 kts 72°
2026-04-23 11:57 60.51308 22.26747 145 ft 13 kts 90°
2026-04-23 11:58 60.51315 22.26938 148 ft 15 kts 85°
2026-04-23 11:58 60.51327 22.27169 149 ft 18 kts 81°
2026-04-23 11:58 60.51337 22.27359 153 ft 12 kts 85°
2026-04-23 11:58 60.51344 22.27557 152 ft 17 kts 85°
2026-04-23 11:59 60.51362 22.27797 150 ft 16 kts 56°
2026-04-23 11:59 60.51449 22.27826 146 ft 14 kts 316°
2026-04-23 11:59 60.51473 22.27680 148 ft 6 kts 289°
2026-04-23 11:59 60.51474 22.27676 148 ft 0 kts 264°
2026-04-23 12:02 60.51473 22.27662 148 ft 11 kts 264°
2026-04-23 12:02 60.51444 22.26962 149 ft 81 kts 264°
2026-04-23 12:02 60.51388 22.25656 301 ft 100 kts 266°
2026-04-23 12:02 60.51331 22.24189 505 ft 106 kts 266°
2026-04-23 12:03 60.51275 22.22639 673 ft 112 kts 262°
2026-04-23 12:03 60.50857 22.21313 861 ft 120 kts 212°
2026-04-23 12:03 60.50055 22.20712 1125 ft 125 kts 200°
2026-04-23 12:03 60.49237 22.20095 1373 ft 130 kts 201°
2026-04-23 12:04 60.48326 22.19414 1347 ft 150 kts 201°
2026-04-23 12:04 60.47301 22.18665 1262 ft 161 kts 200°
2026-04-23 12:04 60.46228 22.17890 1151 ft 165 kts 200°
2026-04-23 12:04 60.45153 22.17085 1037 ft 164 kts 201°
2026-04-23 12:05 60.44092 22.16289 1038 ft 162 kts 201°
2026-04-23 12:05 60.43032 22.15506 1035 ft 162 kts 201°
2026-04-23 12:05 60.41979 22.14710 1042 ft 161 kts 201°
2026-04-23 12:05 60.40911 22.13915 1015 ft 165 kts 206°
2026-04-23 12:06 60.39825 22.13086 1012 ft 167 kts 205°
2026-04-23 12:06 60.38738 22.12277 1013 ft 167 kts 204°
2026-04-23 12:06 60.36757 22.10498 1005 ft 146 kts 211°
2026-04-23 12:07 60.35864 22.09668 997 ft 140 kts 210°
2026-04-23 12:07 60.34993 22.08853 1008 ft 136 kts 212°
2026-04-23 12:07 60.34143 22.08048 1007 ft 135 kts 212°
2026-04-23 12:07 60.33294 22.07242 1009 ft 134 kts 212°
2026-04-23 12:08 60.32449 22.06441 1013 ft 134 kts 212°
2026-04-23 12:08 60.31607 22.05644 1016 ft 133 kts 212°
2026-04-23 12:08 60.30767 22.04849 1020 ft 133 kts 212°
2026-04-23 12:08 60.29930 22.04059 1015 ft 133 kts 212°
2026-04-23 12:09 60.29095 22.03269 1023 ft 132 kts 212°
2026-04-23 12:09 60.28259 22.02479 1024 ft 133 kts 212°
2026-04-23 12:09 60.27413 22.01679 1026 ft 135 kts 212°
2026-04-23 12:09 60.26562 22.00877 1030 ft 134 kts 212°
2026-04-23 12:10 60.25719 22.00082 1034 ft 133 kts 211°
2026-04-23 12:10 60.24878 21.99293 1034 ft 133 kts 211°
2026-04-23 12:10 60.24032 21.98497 1039 ft 136 kts 211°
2026-04-23 12:10 60.23169 21.97688 1038 ft 137 kts 212°
2026-04-23 12:11 60.22312 21.96880 1051 ft 135 kts 213°
2026-04-23 12:11 60.21453 21.96065 1041 ft 136 kts 212°
2026-04-23 12:11 60.20612 21.95266 1041 ft 135 kts 212°
2026-04-23 12:11 60.19761 21.94483 1050 ft 134 kts 211°
2026-04-23 12:12 60.18911 21.93691 1052 ft 135 kts 213°
2026-04-23 12:12 60.18054 21.92881 1054 ft 137 kts 212°
2026-04-23 12:12 60.17187 21.92068 1044 ft 136 kts 212°
2026-04-23 12:12 60.16324 21.91250 1053 ft 138 kts 212°
2026-04-23 12:13 60.15463 21.90447 1058 ft 136 kts 212°
2026-04-23 12:13 60.14603 21.89646 1050 ft 136 kts 212°
2026-04-23 12:13 60.13758 21.88839 1060 ft 138 kts 212°
2026-04-23 12:13 60.12877 21.88025 1049 ft 139 kts 211°
2026-04-23 12:14 60.11999 21.87224 1058 ft 140 kts 212°
2026-04-23 12:14 60.11114 21.86402 1048 ft 139 kts 212°
2026-04-23 12:14 60.10245 21.85581 1047 ft 137 kts 212°
2026-04-23 12:14 60.09385 21.84775 1042 ft 136 kts 212°
2026-04-23 12:15 60.08525 21.83973 1041 ft 137 kts 212°
2026-04-23 12:15 60.07673 21.83177 1048 ft 137 kts 212°
2026-04-23 12:15 60.06804 21.82368 1045 ft 138 kts 212°
2026-04-23 12:15 60.05921 21.81548 1053 ft 144 kts 212°
2026-04-23 12:16 60.04986 21.80668 1066 ft 154 kts 212°
2026-04-23 12:16 60.03999 21.79751 1109 ft 157 kts 212°
2026-04-23 12:16 60.03031 21.78862 1359 ft 150 kts 212°
2026-04-23 12:16 60.02097 21.77996 1611 ft 146 kts 212°
2026-04-23 12:17 60.01190 21.77153 1861 ft 142 kts 213°
2026-04-23 12:17 60.00301 21.76328 2116 ft 140 kts 213°
2026-04-23 12:17 59.99417 21.75514 2364 ft 140 kts 213°
2026-04-23 12:17 59.98537 21.74699 2624 ft 139 kts 213°
2026-04-23 12:18 59.97671 21.73897 2887 ft 139 kts 213°
2026-04-23 12:18 59.96796 21.73088 3141 ft 138 kts 213°
2026-04-23 12:18 59.95926 21.72284 3393 ft 138 kts 213°
2026-04-23 12:18 59.95037 21.71460 3550 ft 149 kts 212°
2026-04-23 12:19 59.94058 21.70549 3570 ft 160 kts 211°
2026-04-23 12:19 59.93023 21.69593 3570 ft 167 kts 211°
2026-04-23 12:19 59.91948 21.68611 3568 ft 171 kts 211°
2026-04-23 12:19 59.90863 21.67607 3561 ft 173 kts 212°
2026-04-23 12:20 59.89764 21.66569 3559 ft 175 kts 211°
2026-04-23 12:20 59.88653 21.65571 3558 ft 176 kts 210°
2026-04-23 12:20 59.87540 21.64580 3562 ft 175 kts 211°
2026-04-23 12:20 59.86440 21.63557 3559 ft 174 kts 211°
2026-04-23 12:21 59.85344 21.62545 3564 ft 173 kts 211°
2026-04-23 12:21 59.84240 21.61565 3563 ft 173 kts 210°
2026-04-23 12:21 59.83136 21.60594 3564 ft 174 kts 211°
2026-04-23 12:21 59.82012 21.59608 3558 ft 180 kts 211°
2026-04-23 12:22 59.80869 21.58608 3550 ft 178 kts 211°
2026-04-23 12:22 59.79749 21.57616 3546 ft 174 kts 213°
2026-04-23 12:22 59.78965 21.56018 3559 ft 157 kts 249°
2026-04-23 12:22 59.78446 21.54127 3568 ft 157 kts 250°
2026-04-23 12:23 59.77905 21.52234 3566 ft 158 kts 249°
2026-04-23 12:23 59.77355 21.50346 3566 ft 158 kts 249°
2026-04-23 12:23 59.76806 21.48457 3569 ft 158 kts 250°
2026-04-23 12:23 59.76259 21.46573 3565 ft 157 kts 250°
2026-04-23 12:24 59.75715 21.44684 3563 ft 158 kts 249°
2026-04-23 12:24 59.75174 21.42817 3567 ft 158 kts 250°
2026-04-23 12:24 59.74628 21.40923 3568 ft 158 kts 249°
2026-04-23 12:24 59.74081 21.39030 3564 ft 157 kts 249°
2026-04-23 12:25 59.73914 21.37066 3564 ft 139 kts 291°
2026-04-23 12:25 59.74147 21.35882 3577 ft 136 kts 300°
2026-04-23 12:25 59.74631 21.33581 3575 ft 137 kts 298°
2026-04-23 12:25 59.74984 21.31816 3578 ft 138 kts 298°
2026-04-23 12:26 59.75342 21.30030 3571 ft 139 kts 298°
2026-04-23 12:26 59.75581 21.28854 3574 ft 138 kts 299°
2026-04-23 12:26 59.76194 21.27502 3560 ft 132 kts 333°
2026-04-23 12:26 59.77098 21.27356 3561 ft 137 kts 11°
2026-04-23 12:27 59.77862 21.28568 3559 ft 151 kts 49°
2026-04-23 12:27 59.78129 21.30665 3562 ft 164 kts 79°
2026-04-23 12:27 59.78280 21.32863 3566 ft 158 kts 66°
2026-04-23 12:27 59.78637 21.34900 3563 ft 156 kts 60°
2026-04-23 12:28 59.79007 21.36928 3562 ft 156 kts 62°
2026-04-23 12:28 59.79361 21.38986 3566 ft 159 kts 62°
2026-04-23 12:28 59.79721 21.41054 3567 ft 158 kts 62°
2026-04-23 12:28 59.80083 21.43111 3567 ft 157 kts 62°
2026-04-23 12:29 59.80441 21.45154 3566 ft 156 kts 62°
2026-04-23 12:29 59.80792 21.47178 3562 ft 154 kts 62°
2026-04-23 12:29 59.81144 21.49190 3559 ft 154 kts 62°
2026-04-23 12:29 59.81497 21.51199 3557 ft 154 kts 62°
2026-04-23 12:30 59.81841 21.53185 3561 ft 154 kts 62°
2026-04-23 12:30 59.82188 21.55191 3557 ft 153 kts 62°
2026-04-23 12:30 59.82536 21.57196 3558 ft 153 kts 62°
2026-04-23 12:30 59.82883 21.59198 3571 ft 154 kts 61°
2026-04-23 12:31 59.82941 21.61411 3563 ft 173 kts 96°
2026-04-23 12:31 59.82606 21.63755 3555 ft 177 kts 99°
2026-04-23 12:31 59.82302 21.66088 3552 ft 172 kts 97°
2026-04-23 12:31 59.81996 21.68361 3546 ft 169 kts 98°
2026-04-23 12:32 59.81687 21.70600 3542 ft 167 kts 98°
2026-04-23 12:32 59.81374 21.72826 3541 ft 167 kts 98°
2026-04-23 12:32 59.81062 21.75037 3545 ft 166 kts 99°
2026-04-23 12:32 59.80754 21.77246 3542 ft 166 kts 98°
2026-04-23 12:33 59.80445 21.79457 3546 ft 166 kts 98°
2026-04-23 12:33 59.80133 21.81674 3544 ft 166 kts 98°
2026-04-23 12:33 59.79823 21.83888 3548 ft 166 kts 99°
2026-04-23 12:33 59.79511 21.86103 3540 ft 166 kts 98°
2026-04-23 12:34 59.79204 21.88283 3546 ft 166 kts 98°
2026-04-23 12:34 59.78891 21.90482 3547 ft 165 kts 99°
2026-04-23 12:34 59.78205 21.92344 3538 ft 174 kts 141°
2026-04-23 12:34 59.77204 21.93697 3546 ft 174 kts 143°
2026-04-23 12:35 59.76148 21.94865 3537 ft 176 kts 167°
2026-04-23 12:35 59.75007 21.94462 3533 ft 164 kts 221°
2026-04-23 12:35 59.74506 21.92674 3542 ft 143 kts 274°
2026-04-23 12:35 59.74530 21.90740 3554 ft 141 kts 281°
2026-04-23 12:36 59.74536 21.88781 3553 ft 142 kts 278°
2026-04-23 12:36 59.74537 21.86811 3557 ft 143 kts 279°
2026-04-23 12:36 59.74546 21.84834 3560 ft 143 kts 279°
2026-04-23 12:36 59.74561 21.82860 3560 ft 143 kts 279°
2026-04-23 12:37 59.74575 21.80881 3557 ft 143 kts 279°
2026-04-23 12:37 59.74587 21.78924 3560 ft 144 kts 279°
2026-04-23 12:37 59.74600 21.76947 3563 ft 143 kts 279°
2026-04-23 12:37 59.74617 21.74969 3556 ft 144 kts 279°
2026-04-23 12:38 59.74635 21.72990 3555 ft 144 kts 279°
2026-04-23 12:38 59.74651 21.71004 3554 ft 144 kts 279°
2026-04-23 12:38 59.74665 21.69027 3556 ft 143 kts 279°
2026-04-23 12:38 59.74677 21.67069 3554 ft 144 kts 279°
2026-04-23 12:39 59.74689 21.65090 3555 ft 143 kts 280°
2026-04-23 12:39 59.74702 21.63118 3553 ft 142 kts 279°
2026-04-23 12:39 59.74714 21.61160 3550 ft 142 kts 279°
2026-04-23 12:39 59.74728 21.59205 3552 ft 142 kts 279°
2026-04-23 12:40 59.74743 21.57252 3552 ft 142 kts 279°
2026-04-23 12:40 59.74758 21.55292 3565 ft 142 kts 279°
2026-04-23 12:40 59.74772 21.53328 3560 ft 143 kts 279°
2026-04-23 12:40 59.74783 21.51366 3560 ft 142 kts 279°
2026-04-23 12:41 59.74794 21.49405 3557 ft 142 kts 279°
2026-04-23 12:41 59.74805 21.47448 3558 ft 142 kts 279°
2026-04-23 12:41 59.74818 21.45492 3555 ft 142 kts 279°
2026-04-23 12:41 59.74829 21.43533 3556 ft 143 kts 279°
2026-04-23 12:42 59.74840 21.41591 3555 ft 142 kts 279°
2026-04-23 12:42 59.74850 21.39627 3553 ft 142 kts 279°
2026-04-23 12:42 59.74860 21.37666 3554 ft 142 kts 279°
2026-04-23 12:42 59.74871 21.35705 3556 ft 142 kts 279°
2026-04-23 12:43 59.74882 21.33748 3553 ft 142 kts 279°
2026-04-23 12:43 59.74895 21.31795 3557 ft 142 kts 279°
2026-04-23 12:43 59.74905 21.29832 3554 ft 142 kts 280°
2026-04-23 12:43 59.74650 21.27893 3552 ft 154 kts 250°
2026-04-23 12:44 59.74079 21.26081 3556 ft 155 kts 247°
2026-04-23 12:44 59.73519 21.24259 3558 ft 155 kts 248°
2026-04-23 12:44 59.72892 21.22526 3553 ft 163 kts 228°
2026-04-23 12:44 59.71774 21.21927 3537 ft 176 kts 175°
2026-04-23 12:45 59.70771 21.23187 3544 ft 171 kts 119°
2026-04-23 12:45 59.70403 21.25335 3571 ft 164 kts 96°
2026-04-23 12:45 59.70111 21.27513 3568 ft 166 kts 99°
2026-04-23 12:45 59.69794 21.29717 3570 ft 167 kts 98°
2026-04-23 12:46 59.69475 21.31928 3571 ft 167 kts 98°
2026-04-23 12:46 59.69161 21.34141 3569 ft 167 kts 98°
2026-04-23 12:46 59.68851 21.36357 3569 ft 167 kts 98°
2026-04-23 12:46 59.68536 21.38575 3567 ft 167 kts 98°
2026-04-23 12:47 59.68224 21.40787 3570 ft 167 kts 98°
2026-04-23 12:47 59.67916 21.42998 3567 ft 166 kts 98°
2026-04-23 12:47 59.67606 21.45206 3568 ft 166 kts 98°
2026-04-23 12:47 59.67294 21.47414 3566 ft 167 kts 98°
2026-04-23 12:48 59.66983 21.49619 3564 ft 167 kts 97°
2026-04-23 12:48 59.66671 21.51830 3562 ft 167 kts 99°
2026-04-23 12:48 59.66357 21.54045 3563 ft 167 kts 98°
2026-04-23 12:48 59.66045 21.56259 3566 ft 167 kts 99°
2026-04-23 12:49 59.65735 21.58468 3561 ft 167 kts 98°
2026-04-23 12:49 59.65422 21.60676 3559 ft 167 kts 99°
2026-04-23 12:49 59.65110 21.62886 3559 ft 166 kts 98°
2026-04-23 12:49 59.64806 21.65092 3561 ft 166 kts 97°
2026-04-23 12:50 59.64542 21.67305 3561 ft 165 kts 94°
2026-04-23 12:50 59.64363 21.69533 3558 ft 164 kts 90°
2026-04-23 12:50 59.64355 21.71714 3529 ft 152 kts 62°
2026-04-23 12:50 59.65037 21.72995 3537 ft 132 kts
2026-04-23 12:51 59.65933 21.73159 3556 ft 129 kts
2026-04-23 12:51 59.66832 21.73319 3551 ft 130 kts
2026-04-23 12:51 59.67720 21.73498 3553 ft 130 kts
2026-04-23 12:51 59.68620 21.73670 3552 ft 130 kts
2026-04-23 12:52 59.69537 21.73838 3554 ft 131 kts
2026-04-23 12:52 59.70432 21.74002 3557 ft 131 kts
2026-04-23 12:52 59.71342 21.74166 3554 ft 131 kts
2026-04-23 12:52 59.72203 21.73814 3535 ft 131 kts 324°
2026-04-23 12:53 59.72515 21.72106 3536 ft 145 kts 275°
2026-04-23 12:53 59.72365 21.70109 3540 ft 146 kts 270°
2026-04-23 12:53 59.72229 21.68114 3549 ft 146 kts 271°
2026-04-23 12:53 59.72091 21.66121 3546 ft 146 kts 270°
2026-04-23 12:54 59.71919 21.64133 3550 ft 146 kts 269°
2026-04-23 12:54 59.71741 21.62144 3549 ft 146 kts 269°
2026-04-23 12:54 59.71565 21.60157 3544 ft 147 kts 269°
2026-04-23 12:54 59.71386 21.58170 3540 ft 147 kts 269°
2026-04-23 12:55 59.71204 21.56178 3543 ft 147 kts 269°
2026-04-23 12:55 59.71024 21.54188 3544 ft 146 kts 269°
2026-04-23 12:55 59.70875 21.52211 3534 ft 142 kts 278°
2026-04-23 12:55 59.71188 21.50494 3545 ft 130 kts 315°
2026-04-23 12:56 59.71975 21.49767 3550 ft 129 kts 354°
2026-04-23 12:56 59.72854 21.50206 3547 ft 134 kts 17°
2026-04-23 12:56 59.73613 21.51297 3547 ft 138 kts 32°
2026-04-23 12:56 59.74418 21.52284 3551 ft 135 kts 20°
2026-04-23 12:57 59.75259 21.53094 3555 ft 135 kts 19°
2026-04-23 12:57 59.76107 21.53905 3554 ft 135 kts 19°
2026-04-23 12:57 59.76990 21.54423 3534 ft 131 kts 353°
2026-04-23 12:57 59.77671 21.53367 3535 ft 135 kts 298°
2026-04-23 12:58 59.77857 21.51506 3539 ft 138 kts 287°
2026-04-23 12:58 59.78035 21.49656 3542 ft 138 kts 289°
2026-04-23 12:58 59.78231 21.47785 3551 ft 139 kts 289°
2026-04-23 12:58 59.78422 21.45907 3549 ft 139 kts 289°
2026-04-23 12:59 59.78608 21.44025 3544 ft 139 kts 289°
2026-04-23 12:59 59.78794 21.42147 3544 ft 139 kts 289°
2026-04-23 12:59 59.78981 21.40266 3547 ft 139 kts 289°
2026-04-23 12:59 59.79168 21.38392 3543 ft 138 kts 289°
2026-04-23 13:00 59.79357 21.36506 3548 ft 140 kts 289°
2026-04-23 13:00 59.79549 21.34604 3544 ft 140 kts 289°
2026-04-23 13:00 59.79735 21.32709 3545 ft 140 kts 289°
2026-04-23 13:00 59.79919 21.30813 3545 ft 139 kts 289°
2026-04-23 13:01 59.80105 21.28926 3546 ft 139 kts 289°
2026-04-23 13:01 59.80291 21.27041 3549 ft 139 kts 289°
2026-04-23 13:01 59.80478 21.25155 3552 ft 139 kts 289°
2026-04-23 13:01 59.80666 21.23272 3553 ft 139 kts 289°
2026-04-23 13:02 59.80918 21.21448 3539 ft 132 kts 305°
2026-04-23 13:02 59.81615 21.20661 3542 ft 120 kts 359°
2026-04-23 13:02 59.82264 21.21705 3543 ft 137 kts 60°
2026-04-23 13:02 59.82106 21.23686 3556 ft 158 kts 109°
2026-04-23 13:03 59.81605 21.25664 3563 ft 162 kts 109°
2026-04-23 13:03 59.81122 21.27716 3563 ft 165 kts 108°
2026-04-23 13:03 59.80652 21.29800 3550 ft 166 kts 107°
2026-04-23 13:03 59.80188 21.31902 3550 ft 166 kts 107°
2026-04-23 13:04 59.79719 21.34003 3554 ft 167 kts 108°
2026-04-23 13:04 59.79250 21.36110 3558 ft 167 kts 107°
2026-04-23 13:04 59.78731 21.38182 3559 ft 173 kts 122°
2026-04-23 13:04 59.77761 21.39646 3543 ft 176 kts 148°
2026-04-23 13:05 59.76716 21.40904 3544 ft 175 kts 147°
2026-04-23 13:05 59.75685 21.42188 3542 ft 175 kts 147°
2026-04-23 13:05 59.74533 21.42737 3531 ft 171 kts 193°
2026-04-23 13:05 59.73595 21.41578 3552 ft 155 kts 237°
2026-04-23 13:06 59.72140 21.38359 3556 ft 158 kts 236°
2026-04-23 13:06 59.71394 21.36761 3555 ft 158 kts 236°
2026-04-23 13:06 59.70659 21.35181 3550 ft 158 kts 236°
2026-04-23 13:07 59.69918 21.33578 3552 ft 158 kts 236°
2026-04-23 13:07 59.69176 21.31977 3550 ft 158 kts 236°
2026-04-23 13:07 59.68433 21.30379 3551 ft 158 kts 236°
2026-04-23 13:07 59.67688 21.28779 3550 ft 158 kts 236°
2026-04-23 13:08 59.66944 21.27173 3548 ft 158 kts 236°
2026-04-23 13:08 59.66388 21.25410 3535 ft 144 kts 269°
2026-04-23 13:08 59.66687 21.23759 3553 ft 126 kts 322°
2026-04-23 13:08 59.67396 21.22772 3561 ft 125 kts 328°
2026-04-23 13:09 59.68100 21.21753 3557 ft 126 kts 326°
2026-04-23 13:09 59.68804 21.20710 3556 ft 127 kts 326°
2026-04-23 13:09 59.69587 21.20020 3546 ft 127 kts 358°
2026-04-23 13:09 59.70329 21.21011 3540 ft 144 kts 51°
2026-04-23 13:10 59.70728 21.22833 3546 ft 146 kts 58°
2026-04-23 13:10 59.71144 21.24675 3553 ft 146 kts 56°
2026-04-23 13:10 59.71568 21.26507 3554 ft 147 kts 56°
2026-04-23 13:10 59.71993 21.28347 3554 ft 146 kts 55°
2026-04-23 13:11 59.72319 21.30268 3547 ft 157 kts 80°
2026-04-23 13:11 59.71838 21.32281 3540 ft 173 kts 135°
2026-04-23 13:11 59.70847 21.33617 3551 ft 172 kts 144°
2026-04-23 13:11 59.69852 21.34947 3561 ft 173 kts 143°
2026-04-23 13:12 59.68957 21.36486 3531 ft 169 kts 117°
2026-04-23 13:12 59.68821 21.38592 3539 ft 148 kts 62°
2026-04-23 13:12 59.69341 21.40223 3529 ft 134 kts 30°
2026-04-23 13:12 59.70178 21.40392 3531 ft 125 kts 336°
2026-04-23 13:13 59.70865 21.39337 3544 ft 126 kts 323°
2026-04-23 13:13 59.71316 21.38610 3542 ft 126 kts 325°
2026-04-23 13:13 59.72135 21.36987 3532 ft 133 kts 299°
2026-04-23 13:13 59.71987 21.35116 3528 ft 154 kts 245°
2026-04-23 13:14 59.71229 21.33558 3534 ft 158 kts 232°
2026-04-23 13:14 59.70458 21.32013 3545 ft 157 kts 234°
2026-04-23 13:14 59.69942 21.30960 3544 ft 158 kts 235°
2026-04-23 13:14 59.69182 21.29415 3548 ft 158 kts 235°
2026-04-23 13:15 59.68312 21.28059 3535 ft 168 kts 208°
2026-04-23 13:15 59.67127 21.28014 3538 ft 174 kts 173°
2026-04-23 13:15 59.65929 21.28380 3547 ft 174 kts 174°
2026-04-23 13:15 59.64749 21.28871 3527 ft 175 kts 154°
2026-04-23 13:16 59.63944 21.30554 3545 ft 167 kts 113°
2026-04-23 13:16 59.63394 21.32569 3555 ft 167 kts 113°
2026-04-23 13:16 59.62826 21.34551 3552 ft 168 kts 113°
2026-04-23 13:16 59.62245 21.36561 3553 ft 169 kts 113°
2026-04-23 13:17 59.61663 21.38576 3554 ft 169 kts 113°
2026-04-23 13:17 59.61080 21.40589 3554 ft 169 kts 114°
2026-04-23 13:17 59.60496 21.42614 3556 ft 169 kts 113°
2026-04-23 13:17 59.59914 21.44635 3552 ft 169 kts 114°
2026-04-23 13:18 59.59332 21.46653 3553 ft 169 kts 114°
2026-04-23 13:18 59.58752 21.48676 3550 ft 170 kts 114°
2026-04-23 13:18 59.58173 21.50704 3548 ft 169 kts 114°
2026-04-23 13:18 59.57601 21.52699 3551 ft 169 kts 114°
2026-04-23 13:19 59.57313 21.54812 3535 ft 154 kts 76°
2026-04-23 13:19 59.57521 21.56835 3542 ft 151 kts 68°
2026-04-23 13:19 59.57731 21.58870 3549 ft 152 kts 69°
2026-04-23 13:19 59.58017 21.60818 3530 ft 143 kts 48°
2026-04-23 13:20 59.58786 21.61789 3529 ft 128 kts
2026-04-23 13:20 59.59655 21.61684 3542 ft 126 kts 352°
2026-04-23 13:20 59.60527 21.61513 3544 ft 126 kts 352°
2026-04-23 13:20 59.61401 21.61388 3541 ft 126 kts 354°
2026-04-23 13:21 59.62282 21.61326 3548 ft 127 kts 356°
2026-04-23 13:21 59.63165 21.61280 3542 ft 127 kts 356°
2026-04-23 13:21 59.64047 21.61234 3545 ft 127 kts 356°
2026-04-23 13:21 59.64932 21.61192 3543 ft 127 kts 356°
2026-04-23 13:22 59.65820 21.61160 3550 ft 128 kts 356°
2026-04-23 13:22 59.66712 21.61126 3547 ft 128 kts 356°
2026-04-23 13:22 59.67604 21.61100 3548 ft 128 kts 356°
2026-04-23 13:22 59.68496 21.61061 3542 ft 128 kts 355°
2026-04-23 13:23 59.69385 21.61023 3542 ft 128 kts 356°
2026-04-23 13:23 59.70277 21.60992 3542 ft 128 kts 356°
2026-04-23 13:23 59.71154 21.60961 3539 ft 128 kts 356°
2026-04-23 13:23 59.72047 21.60926 3541 ft 128 kts 356°
2026-04-23 13:24 59.72934 21.60893 3538 ft 127 kts 356°
2026-04-23 13:24 59.73817 21.60858 3537 ft 127 kts 356°
2026-04-23 13:24 59.74699 21.60829 3541 ft 127 kts 356°
2026-04-23 13:24 59.75583 21.60792 3546 ft 127 kts 356°
2026-04-23 13:25 59.76473 21.60753 3540 ft 128 kts 356°
2026-04-23 13:25 59.77363 21.60727 3542 ft 128 kts 357°
2026-04-23 13:25 59.78255 21.60690 3542 ft 128 kts 355°
2026-04-23 13:25 59.79149 21.60648 3547 ft 128 kts 356°
2026-04-23 13:26 59.80044 21.60616 3541 ft 129 kts 356°
2026-04-23 13:26 59.80942 21.60587 3537 ft 129 kts 356°
2026-04-23 13:26 59.81841 21.60560 3537 ft 129 kts 356°
2026-04-23 13:26 59.82735 21.60523 3543 ft 128 kts 356°
2026-04-23 13:27 59.83627 21.60879 3529 ft 136 kts 19°
2026-04-23 13:27 59.84505 21.61398 3526 ft 129 kts 357°
2026-04-23 13:27 59.85292 21.60715 3536 ft 129 kts 319°
2026-04-23 13:27 59.85624 21.59001 3526 ft 141 kts 279°
2026-04-23 13:28 59.85305 21.57090 3530 ft 154 kts 245°
2026-04-23 13:28 59.84447 21.55757 3521 ft 167 kts 208°
2026-04-23 13:28 59.83282 21.55594 3535 ft 173 kts 169°
2026-04-23 13:28 59.82251 21.56740 3524 ft 167 kts 131°
2026-04-23 13:29 59.81763 21.58694 3515 ft 154 kts 90°
2026-04-23 13:29 59.81930 21.60490 3511 ft 109 kts 46°
2026-04-23 13:29 59.82415 21.61109 3516 ft 67 kts
2026-04-23 13:29 59.82886 21.61399 3523 ft 83 kts 26°
2026-04-23 13:30 59.83039 21.62727 3560 ft 115 kts 88°
2026-04-23 13:30 59.82868 21.64360 3527 ft 132 kts 109°
2026-04-23 13:30 59.82094 21.65371 3533 ft 140 kts 173°
2026-04-23 13:30 59.81128 21.65611 3539 ft 141 kts 174°
2026-04-23 13:31 59.80164 21.65839 3535 ft 141 kts 187°
2026-04-23 13:31 59.79306 21.65130 3530 ft 130 kts 234°
2026-04-23 13:31 59.78988 21.63642 3522 ft 111 kts 283°
2026-04-23 13:31 59.79309 21.62516 3520 ft 86 kts 330°
2026-04-23 13:32 59.79787 21.61931 3525 ft 77 kts 336°
2026-04-23 13:32 59.80264 21.61580 3530 ft 70 kts 339°
2026-04-23 13:32 59.80717 21.61380 3523 ft 65 kts 349°
2026-04-23 13:32 59.81149 21.61241 3522 ft 61 kts 349°
2026-04-23 13:33 59.81555 21.61106 3521 ft 57 kts 347°
2026-04-23 13:33 59.81941 21.60967 3521 ft 62 kts 347°
2026-04-23 13:33 59.82437 21.60760 3541 ft 81 kts 346°
2026-04-23 13:33 59.83037 21.60492 3545 ft 97 kts 346°
2026-04-23 13:34 59.83750 21.60466 3539 ft 110 kts 12°
2026-04-23 13:34 59.84454 21.61112 3539 ft 114 kts 18°
2026-04-23 13:34 59.85180 21.61777 3541 ft 115 kts 18°
2026-04-23 13:34 59.85913 21.62457 3537 ft 116 kts 18°
2026-04-23 13:35 59.86645 21.63147 3540 ft 117 kts 18°
2026-04-23 13:35 59.87393 21.63671 3521 ft 112 kts 356°
2026-04-23 13:35 59.87966 21.62757 3528 ft 117 kts 297°
2026-04-23 13:35 59.88148 21.61150 3527 ft 119 kts 292°
2026-04-23 13:36 59.88184 21.59499 3519 ft 119 kts 264°
2026-04-23 13:36 59.87649 21.58372 3505 ft 112 kts 209°
2026-04-23 13:36 59.86957 21.58465 3519 ft 89 kts 158°
2026-04-23 13:36 59.86319 21.58907 3549 ft 108 kts 165°
2026-04-23 13:37 59.85479 21.59344 3553 ft 139 kts 167°
2026-04-23 13:37 59.84465 21.59835 3549 ft 158 kts 168°
2026-04-23 13:37 59.83355 21.60360 3546 ft 169 kts 168°
2026-04-23 13:37 59.82193 21.60976 3523 ft 177 kts 157°
2026-04-23 13:38 59.81247 21.62472 3526 ft 173 kts 121°
2026-04-23 13:38 59.80752 21.64582 3530 ft 168 kts 107°
2026-04-23 13:38 59.80089 21.66455 3520 ft 154 kts 131°
2026-04-23 13:38 59.79262 21.67363 3490 ft 124 kts 181°
2026-04-23 13:39 59.78519 21.67364 3510 ft 96 kts 182°
2026-04-23 13:39 59.77925 21.67440 3391 ft 82 kts 182°
2026-04-23 13:39 59.77331 21.67514 3314 ft 94 kts 183°
2026-04-23 13:39 59.76670 21.67561 3545 ft 97 kts 186°
2026-04-23 13:40 59.75988 21.67598 3820 ft 95 kts 182°
2026-04-23 13:40 59.75283 21.67651 3919 ft 119 kts 183°
2026-04-23 13:40 59.74307 21.67669 3728 ft 158 kts 182°
2026-04-23 13:40 59.73135 21.67750 3562 ft 176 kts 179°
2026-04-23 13:41 59.71904 21.67891 3539 ft 178 kts 179°
2026-04-23 13:41 59.70684 21.68007 3535 ft 168 kts 186°
2026-04-23 13:41 59.69688 21.67298 3511 ft 141 kts 228°
2026-04-23 13:41 59.69251 21.65832 3516 ft 114 kts 269°
2026-04-23 13:42 59.69128 21.64343 3520 ft 105 kts 277°
2026-04-23 13:42 59.69189 21.62992 3527 ft 94 kts 294°
2026-04-23 13:42 59.69440 21.61870 3509 ft 85 kts 320°
2026-04-23 13:42 59.69924 21.61259 3530 ft 83 kts 330°
2026-04-23 13:43 59.70440 21.60569 3545 ft 100 kts 328°
2026-04-23 13:43 59.71049 21.59697 3545 ft 115 kts 326°
2026-04-23 13:43 59.71713 21.58708 3539 ft 123 kts 326°
2026-04-23 13:43 59.72403 21.57650 3540 ft 127 kts 325°
2026-04-23 13:44 59.73100 21.56573 3540 ft 129 kts 324°
2026-04-23 13:44 59.73812 21.55460 3539 ft 131 kts 325°
2026-04-23 13:44 59.74534 21.54342 3534 ft 132 kts 325°
2026-04-23 13:44 59.75258 21.53217 3538 ft 132 kts 325°
2026-04-23 13:45 59.75738 21.52473 3540 ft 132 kts 324°
2026-04-23 13:45 59.76702 21.50954 3541 ft 132 kts 324°
2026-04-23 13:45 59.77424 21.49821 3536 ft 132 kts 324°
2026-04-23 13:45 59.78153 21.48696 3540 ft 133 kts 324°
2026-04-23 13:46 59.78877 21.47565 3540 ft 133 kts 324°
2026-04-23 13:46 59.79599 21.46424 3540 ft 133 kts 324°
2026-04-23 13:46 59.80323 21.45290 3539 ft 133 kts 324°
2026-04-23 13:46 59.81038 21.44168 3543 ft 133 kts 324°
2026-04-23 13:47 59.81764 21.43034 3541 ft 132 kts 324°
2026-04-23 13:47 59.82136 21.42452 3538 ft 132 kts 324°
2026-04-23 13:47 59.82834 21.41360 3546 ft 132 kts 324°
2026-04-23 13:47 59.83555 21.40221 3542 ft 132 kts 324°
2026-04-23 13:48 59.84279 21.39093 3542 ft 132 kts 324°
2026-04-23 13:48 59.84968 21.38002 3523 ft 116 kts 324°
2026-04-23 13:48 59.85542 21.37084 3520 ft 97 kts 325°
2026-04-23 13:48 59.86029 21.36352 3516 ft 78 kts 332°
2026-04-23 13:49 59.86531 21.36164 3517 ft 73 kts 358°
2026-04-23 13:49 59.87012 21.36507 3529 ft 77 kts 22°
2026-04-23 13:49 59.87438 21.37139 3534 ft 75 kts 22°
2026-04-23 13:49 59.87859 21.37749 3522 ft 77 kts 28°
2026-04-23 13:50 59.88006 21.38877 3524 ft 101 kts 92°
2026-04-23 13:50 59.87497 21.39945 3530 ft 115 kts 160°
2026-04-23 13:50 59.86740 21.39826 3528 ft 107 kts 215°
2026-04-23 13:50 59.86137 21.39064 3535 ft 100 kts 238°
2026-04-23 13:51 59.85751 21.37993 3542 ft 90 kts 266°
2026-04-23 13:51 59.85708 21.36842 3536 ft 79 kts 293°
2026-04-23 13:51 59.85904 21.35885 3536 ft 71 kts 313°
2026-04-23 13:51 59.86249 21.35258 3546 ft 65 kts 332°
2026-04-23 13:52 59.86706 21.34976 3541 ft 79 kts 351°
2026-04-23 13:52 59.87309 21.35244 3546 ft 101 kts 20°
2026-04-23 13:52 59.87787 21.36465 3535 ft 129 kts 62°
2026-04-23 13:52 59.87703 21.38372 3549 ft 152 kts 105°
2026-04-23 13:53 59.86966 21.39964 3537 ft 164 kts 148°
2026-04-23 13:53 59.85855 21.40410 3532 ft 165 kts 191°
2026-04-23 13:53 59.84863 21.39520 3529 ft 152 kts 231°
2026-04-23 13:53 59.84414 21.37793 3528 ft 135 kts 272°
2026-04-23 13:54 59.84639 21.36165 3524 ft 121 kts 313°
2026-04-23 13:54 59.85294 21.35184 3532 ft 117 kts 328°
2026-04-23 13:54 59.86030 21.34499 3535 ft 118 kts 343°
2026-04-23 13:54 59.86856 21.34449 3535 ft 123 kts
2026-04-23 13:55 59.87620 21.35353 3542 ft 138 kts 40°
2026-04-23 13:55 59.87971 21.37221 3535 ft 156 kts 78°
2026-04-23 13:55 59.87652 21.39366 3538 ft 168 kts 113°
2026-04-23 13:55 59.87343 21.41513 3516 ft 157 kts 81°
2026-04-23 13:56 59.87682 21.43410 3515 ft 139 kts 41°
2026-04-23 13:56 59.88327 21.44798 3528 ft 142 kts 50°
2026-04-23 13:56 59.88516 21.46812 3520 ft 159 kts 90°
2026-04-23 13:56 59.88001 21.48820 3519 ft 170 kts 130°
2026-04-23 13:57 59.86953 21.49889 3524 ft 172 kts 171°
2026-04-23 13:57 59.85805 21.49572 3517 ft 164 kts 212°
2026-04-23 13:57 59.85028 21.48089 3521 ft 150 kts 252°
2026-04-23 13:57 59.84885 21.46174 3527 ft 136 kts 285°
2026-04-23 13:58 59.85010 21.44320 3530 ft 136 kts 286°
2026-04-23 13:58 59.85119 21.42469 3531 ft 137 kts 285°
2026-04-23 13:58 59.85228 21.40589 3532 ft 136 kts 286°
2026-04-23 13:58 59.85414 21.38772 3528 ft 132 kts 296°
2026-04-23 13:59 59.85798 21.37149 3528 ft 128 kts 308°
2026-04-23 13:59 59.86395 21.35894 3529 ft 125 kts 323°
2026-04-23 13:59 59.87059 21.34776 3529 ft 125 kts 323°
2026-04-23 13:59 59.87732 21.33676 3530 ft 125 kts 323°
2026-04-23 14:00 59.88181 21.32953 3528 ft 125 kts 324°
2026-04-23 14:00 59.89094 21.31506 3530 ft 125 kts 324°
2026-04-23 14:00 59.89778 21.30427 3530 ft 125 kts 324°
2026-04-23 14:00 59.90460 21.29348 3529 ft 125 kts 325°
2026-04-23 14:01 59.91133 21.28284 3530 ft 125 kts 324°
2026-04-23 14:01 59.91813 21.27206 3529 ft 125 kts 325°
2026-04-23 14:01 59.92494 21.26130 3527 ft 125 kts 325°
2026-04-23 14:01 59.93174 21.25055 3529 ft 125 kts 325°
2026-04-23 14:02 59.93854 21.23983 3529 ft 125 kts 324°
2026-04-23 14:02 59.94532 21.22907 3527 ft 124 kts 325°
2026-04-23 14:02 59.94980 21.22194 3528 ft 124 kts 325°
2026-04-23 14:02 59.95659 21.21118 3528 ft 124 kts 325°
2026-04-23 14:03 59.96336 21.20043 3527 ft 124 kts 325°
2026-04-23 14:03 59.97015 21.18969 3532 ft 124 kts 325°
2026-04-23 14:03 59.97692 21.17893 3523 ft 124 kts 325°
2026-04-23 14:03 59.98589 21.16467 3535 ft 124 kts 324°
2026-04-23 14:04 59.99045 21.15739 3527 ft 124 kts 324°
2026-04-23 14:04 59.99721 21.14665 3527 ft 124 kts 325°
2026-04-23 14:04 60.00396 21.13594 3528 ft 124 kts 325°
2026-04-23 14:04 60.01069 21.12520 3524 ft 124 kts 324°
2026-04-23 14:05 60.01741 21.11449 3523 ft 123 kts 325°
2026-04-23 14:05 60.02412 21.10379 3523 ft 123 kts 325°
2026-04-23 14:05 60.03082 21.09310 3528 ft 123 kts 325°
2026-04-23 14:05 60.03645 21.08067 3519 ft 129 kts 299°
2026-04-23 14:06 60.03474 21.06225 3512 ft 153 kts 243°
2026-04-23 14:06 60.02477 21.05271 3513 ft 172 kts 187°
2026-04-23 14:06 60.01282 21.05471 3528 ft 173 kts 177°
2026-04-23 14:06 60.00107 21.05900 3517 ft 174 kts 155°
2026-04-23 14:07 59.99269 21.07533 3535 ft 167 kts 119°
2026-04-23 14:07 59.97904 21.11360 3534 ft 169 kts 120°
2026-04-23 14:07 59.97214 21.13255 3536 ft 170 kts 121°
2026-04-23 14:08 59.96523 21.15162 3535 ft 170 kts 121°
2026-04-23 14:08 59.95828 21.17086 3536 ft 170 kts 120°
2026-04-23 14:08 59.95145 21.18985 3537 ft 171 kts 120°
2026-04-23 14:08 59.94454 21.20903 3530 ft 170 kts 121°
2026-04-23 14:09 59.93764 21.22825 3530 ft 170 kts 121°
2026-04-23 14:09 59.92815 21.24218 3505 ft 175 kts 166°
2026-04-23 14:09 59.91696 21.23805 3513 ft 161 kts 224°
2026-04-23 14:09 59.91257 21.22034 3519 ft 136 kts 282°
2026-04-23 14:10 59.91414 21.21173 3530 ft 126 kts 311°
2026-04-23 14:10 59.92180 21.20657 3531 ft 126 kts
2026-04-23 14:10 59.92797 21.21986 3521 ft 149 kts 65°
2026-04-23 14:10 59.92573 21.24103 3521 ft 167 kts 114°
2026-04-23 14:11 59.91934 21.26055 3522 ft 168 kts 117°
2026-04-23 14:11 59.91319 21.28024 3529 ft 167 kts 116°
2026-04-23 14:11 59.90708 21.29999 3532 ft 168 kts 116°
2026-04-23 14:11 59.90071 21.31918 3526 ft 170 kts 126°
2026-04-23 14:12 59.89069 21.33174 3511 ft 174 kts 165°
2026-04-23 14:12 59.87882 21.33312 3525 ft 171 kts 182°
2026-04-23 14:12 59.86696 21.33603 3524 ft 173 kts 171°
2026-04-23 14:12 59.85521 21.34131 3518 ft 173 kts 169°
2026-04-23 14:13 59.84344 21.34639 3525 ft 173 kts 171°
2026-04-23 14:13 59.83166 21.35118 3535 ft 173 kts 171°
2026-04-23 14:13 59.81986 21.35603 3525 ft 173 kts 170°
2026-04-23 14:13 59.80807 21.36093 3535 ft 174 kts 169°
2026-04-23 14:14 59.79621 21.36588 3529 ft 174 kts 170°
2026-04-23 14:14 59.78434 21.37073 3527 ft 174 kts 170°
2026-04-23 14:14 59.77238 21.37552 3520 ft 178 kts 170°
2026-04-23 14:14 59.76035 21.38095 3510 ft 176 kts 160°
2026-04-23 14:15 59.75112 21.39590 3521 ft 170 kts 126°
2026-04-23 14:15 59.74342 21.41377 3516 ft 170 kts 127°
2026-04-23 14:15 59.73555 21.43133 3517 ft 170 kts 127°
2026-04-23 14:15 59.72766 21.44886 3524 ft 170 kts 127°
2026-04-23 14:16 59.71980 21.46636 3527 ft 170 kts 127°
2026-04-23 14:16 59.71162 21.48339 3515 ft 172 kts 140°
2026-04-23 14:16 59.70024 21.48888 3506 ft 170 kts 194°
2026-04-23 14:16 59.69028 21.47885 3530 ft 161 kts 221°
2026-04-23 14:17 59.68076 21.46696 3539 ft 162 kts 219°
2026-04-23 14:17 59.67102 21.45537 3525 ft 163 kts 219°
2026-04-23 14:17 59.66201 21.44246 3509 ft 155 kts 240°
2026-04-23 14:17 59.66025 21.42406 3509 ft 131 kts 297°
2026-04-23 14:18 59.66669 21.41360 3528 ft 121 kts 341°
2026-04-23 14:18 59.67480 21.40870 3531 ft 123 kts 347°
2026-04-23 14:18 59.68327 21.40633 3528 ft 124 kts 350°
2026-04-23 14:18 59.69189 21.40359 3530 ft 127 kts 348°
2026-04-23 14:19 59.70062 21.40060 3527 ft 128 kts 349°
2026-04-23 14:19 59.70939 21.39766 3531 ft 128 kts 349°
2026-04-23 14:19 59.71816 21.39457 3532 ft 128 kts 348°
2026-04-23 14:19 59.72696 21.39147 3532 ft 128 kts 348°
2026-04-23 14:20 59.73577 21.38840 3527 ft 128 kts 348°
2026-04-23 14:20 59.74457 21.38532 3522 ft 129 kts 348°
2026-04-23 14:20 59.75337 21.38225 3534 ft 128 kts 349°
2026-04-23 14:20 59.76216 21.37913 3533 ft 128 kts 349°
2026-04-23 14:21 59.77084 21.37605 3528 ft 128 kts 348°
2026-04-23 14:21 59.77967 21.37292 3534 ft 130 kts 349°
2026-04-23 14:21 59.78880 21.36987 3529 ft 133 kts 349°
2026-04-23 14:21 59.79787 21.36685 3529 ft 131 kts 350°
2026-04-23 14:22 59.80694 21.36885 3514 ft 133 kts
2026-04-23 14:22 59.81596 21.37275 3517 ft 132 kts
2026-04-23 14:22 59.82497 21.37608 3515 ft 131 kts
2026-04-23 14:22 59.83400 21.37891 3520 ft 131 kts
2026-04-23 14:23 59.84300 21.38068 3499 ft 128 kts 349°
2026-04-23 14:23 59.84939 21.36946 3508 ft 135 kts 296°
2026-04-23 14:23 59.84725 21.35052 3504 ft 158 kts 240°
2026-04-23 14:23 59.83713 21.34100 3509 ft 174 kts 190°
2026-04-23 14:24 59.82497 21.34076 3520 ft 175 kts 184°
2026-04-23 14:24 59.81276 21.34023 3530 ft 176 kts 186°
2026-04-23 14:24 59.80060 21.33835 3529 ft 176 kts 192°
2026-04-23 14:24 59.78846 21.33524 3530 ft 176 kts 193°
2026-04-23 14:25 59.77636 21.33173 3531 ft 176 kts 193°
2026-04-23 14:25 59.76424 21.32827 3525 ft 176 kts 193°
2026-04-23 14:25 59.75214 21.32482 3525 ft 176 kts 192°
2026-04-23 14:25 59.73996 21.32227 3526 ft 178 kts 180°
2026-04-23 14:26 59.72905 21.33284 3499 ft 176 kts 127°
2026-04-23 14:26 59.72579 21.35413 3503 ft 156 kts 72°
2026-04-23 14:26 59.73144 21.36944 3520 ft 132 kts 20°
2026-04-23 14:26 59.74005 21.37506 3527 ft 130 kts
2026-04-23 14:27 59.74888 21.37908 3524 ft 130 kts
2026-04-23 14:27 59.75779 21.38252 3522 ft 131 kts
2026-04-23 14:27 59.76670 21.38589 3524 ft 131 kts
2026-04-23 14:27 59.77568 21.38921 3531 ft 131 kts
2026-04-23 14:28 59.78467 21.39251 3522 ft 132 kts
2026-04-23 14:28 59.79356 21.39582 3528 ft 132 kts
2026-04-23 14:28 59.80255 21.39921 3520 ft 132 kts
2026-04-23 14:28 59.81156 21.40259 3519 ft 132 kts
2026-04-23 14:29 59.82055 21.40594 3522 ft 131 kts
2026-04-23 14:29 59.82950 21.40930 3521 ft 131 kts
2026-04-23 14:29 59.83825 21.41441 3521 ft 137 kts 26°
2026-04-23 14:29 59.84400 21.43052 3507 ft 148 kts 53°
2026-04-23 14:30 59.84879 21.44870 3515 ft 148 kts 52°
2026-04-23 14:30 59.85381 21.46662 3516 ft 148 kts 52°
2026-04-23 14:30 59.85886 21.48446 3516 ft 148 kts 52°
2026-04-23 14:30 59.86388 21.50217 3525 ft 147 kts 51°
2026-04-23 14:31 59.86890 21.51994 3525 ft 147 kts 52°
2026-04-23 14:31 59.87263 21.53904 3505 ft 158 kts 78°
2026-04-23 14:31 59.86819 21.55978 3495 ft 176 kts 133°
2026-04-23 14:31 59.85727 21.57002 3509 ft 177 kts 163°
2026-04-23 14:32 59.84556 21.57772 3526 ft 178 kts 161°
2026-04-23 14:32 59.83389 21.58600 3517 ft 178 kts 161°
2026-04-23 14:32 59.82214 21.59417 3517 ft 181 kts 165°
2026-04-23 14:32 59.80998 21.59220 3494 ft 173 kts 213°
2026-04-23 14:33 59.80336 21.57517 3501 ft 149 kts 268°
2026-04-23 14:33 59.80605 21.55753 3518 ft 131 kts 313°
2026-04-23 14:33 59.81164 21.54324 3520 ft 132 kts 312°
2026-04-23 14:33 59.81704 21.52848 3514 ft 132 kts 311°
2026-04-23 14:34 59.82275 21.51432 3506 ft 129 kts 325°
2026-04-23 14:34 59.83129 21.51268 3499 ft 134 kts 19°
2026-04-23 14:34 59.83651 21.52876 3503 ft 156 kts 75°
2026-04-23 14:34 59.83523 21.55077 3502 ft 162 kts 92°
2026-04-23 14:35 59.83357 21.57289 3510 ft 162 kts 90°
2026-04-23 14:35 59.83211 21.59524 3518 ft 163 kts 90°
2026-04-23 14:35 59.83059 21.61782 3513 ft 168 kts 89°
2026-04-23 14:35 59.82903 21.64079 3504 ft 167 kts 90°
2026-04-23 14:36 59.82740 21.66360 3503 ft 165 kts 90°
2026-04-23 14:36 59.82580 21.68614 3502 ft 164 kts 90°
2026-04-23 14:36 59.82427 21.70863 3500 ft 163 kts 90°
2026-04-23 14:36 59.82272 21.73094 3497 ft 163 kts 90°
2026-04-23 14:37 59.82120 21.75293 3497 ft 163 kts 90°
2026-04-23 14:37 59.81969 21.77518 3497 ft 162 kts 90°
2026-04-23 14:37 59.81822 21.79746 3497 ft 162 kts 90°
2026-04-23 14:37 59.81536 21.81927 3486 ft 170 kts 116°
2026-04-23 14:38 59.80555 21.83227 3483 ft 176 kts 170°
2026-04-23 14:38 59.79346 21.83309 3504 ft 173 kts 182°
2026-04-23 14:38 59.78135 21.83366 3507 ft 174 kts 181°
2026-04-23 14:38 59.76923 21.83462 3508 ft 174 kts 181°
2026-04-23 14:39 59.75710 21.83548 3509 ft 175 kts 181°
2026-04-23 14:39 59.74493 21.83621 3508 ft 175 kts 181°
2026-04-23 14:39 59.73275 21.83687 3506 ft 175 kts 181°
2026-04-23 14:39 59.72056 21.83753 3508 ft 175 kts 181°
2026-04-23 14:40 59.70873 21.83441 3482 ft 169 kts 213°
2026-04-23 14:40 59.70219 21.81767 3497 ft 148 kts 266°
2026-04-23 14:40 59.70109 21.79788 3508 ft 145 kts 273°
2026-04-23 14:40 59.69989 21.77799 3506 ft 146 kts 271°
2026-04-23 14:41 59.69859 21.75823 3508 ft 147 kts 271°
2026-04-23 14:41 59.69728 21.73817 3508 ft 147 kts 272°
2026-04-23 14:41 59.69604 21.71805 3508 ft 147 kts 272°
2026-04-23 14:41 59.69479 21.69795 3504 ft 147 kts 271°
2026-04-23 14:42 59.69354 21.67785 3506 ft 147 kts 272°
2026-04-23 14:42 59.69226 21.65777 3506 ft 147 kts 271°
2026-04-23 14:42 59.69099 21.63760 3510 ft 148 kts 272°
2026-04-23 14:42 59.68974 21.61730 3511 ft 148 kts 272°
2026-04-23 14:43 59.69042 21.59785 3497 ft 136 kts 303°
2026-04-23 14:43 59.69788 21.58897 3503 ft 130 kts 355°
2026-04-23 14:43 59.70698 21.59065 3509 ft 132 kts
2026-04-23 14:43 59.71611 21.59222 3507 ft 132 kts
2026-04-23 14:44 59.72517 21.59357 3520 ft 132 kts
2026-04-23 14:44 59.73438 21.59496 3520 ft 133 kts
2026-04-23 14:44 59.74362 21.59639 3508 ft 133 kts
2026-04-23 14:44 59.75283 21.59776 3509 ft 133 kts
2026-04-23 14:45 59.76201 21.59908 3511 ft 132 kts
2026-04-23 14:45 59.77115 21.60042 3511 ft 132 kts
2026-04-23 14:45 59.78028 21.60174 3508 ft 132 kts
2026-04-23 14:45 59.78917 21.60595 3496 ft 139 kts 27°
2026-04-23 14:46 59.79354 21.62384 3491 ft 161 kts 81°
2026-04-23 14:46 59.79182 21.64622 3498 ft 165 kts 93°
2026-04-23 14:46 59.78989 21.66865 3507 ft 165 kts 91°
2026-04-23 14:46 59.78815 21.69116 3507 ft 165 kts 91°
2026-04-23 14:47 59.78639 21.71368 3508 ft 165 kts 91°
2026-04-23 14:47 59.78464 21.73620 3506 ft 165 kts 91°
2026-04-23 14:47 59.78290 21.75871 3507 ft 165 kts 91°
2026-04-23 14:47 59.78115 21.78114 3505 ft 164 kts 91°
2026-04-23 14:48 59.77998 21.79595 3505 ft 164 kts 92°
2026-04-23 14:48 59.77056 21.82000 3488 ft 179 kts 157°
2026-04-23 14:48 59.76251 21.82246 3497 ft 175 kts 181°
2026-04-23 14:48 59.75030 21.82267 3506 ft 176 kts 181°
2026-04-23 14:49 59.73402 21.82370 3503 ft 177 kts 180°
2026-04-23 14:49 59.72170 21.82448 3508 ft 177 kts 181°
2026-04-23 14:49 59.71343 21.82416 3491 ft 175 kts 193°
2026-04-23 14:49 59.70389 21.81189 3483 ft 159 kts 247°
2026-04-23 14:50 59.70151 21.79199 3507 ft 146 kts 273°
2026-04-23 14:50 59.70058 21.77220 3498 ft 144 kts 280°
2026-04-23 14:50 59.70396 21.75471 3493 ft 133 kts 312°
2026-04-23 14:50 59.70883 21.73892 3500 ft 137 kts 302°
2026-04-23 14:51 59.71252 21.72135 3499 ft 139 kts 299°
2026-04-23 14:51 59.71600 21.70356 3498 ft 139 kts 298°
2026-04-23 14:51 59.71947 21.68573 3500 ft 139 kts 298°
2026-04-23 14:51 59.72290 21.66787 3500 ft 139 kts 298°
2026-04-23 14:52 59.72637 21.65001 3498 ft 139 kts 298°
2026-04-23 14:52 59.72981 21.63216 3500 ft 138 kts 298°
2026-04-23 14:52 59.73320 21.61428 3498 ft 138 kts 298°
2026-04-23 14:52 59.73663 21.59648 3501 ft 138 kts 298°
2026-04-23 14:53 59.74001 21.57868 3503 ft 139 kts 297°
2026-04-23 14:53 59.74341 21.56077 3503 ft 139 kts 298°
2026-04-23 14:53 59.74683 21.54314 3509 ft 139 kts 298°
2026-04-23 14:53 59.75023 21.52528 3508 ft 139 kts 298°
2026-04-23 14:54 59.75362 21.50738 3506 ft 139 kts 298°
2026-04-23 14:54 59.75702 21.48946 3508 ft 138 kts 298°
2026-04-23 14:54 59.76041 21.47160 3509 ft 138 kts 298°
2026-04-23 14:54 59.76380 21.45382 3504 ft 137 kts 298°
2026-04-23 14:55 59.76719 21.43615 3502 ft 137 kts 298°
2026-04-23 14:55 59.77053 21.41849 3504 ft 137 kts 298°
2026-04-23 14:55 59.77386 21.40082 3502 ft 137 kts 298°
2026-04-23 14:55 59.77718 21.38313 3504 ft 137 kts 298°
2026-04-23 14:56 59.78206 21.36764 3497 ft 133 kts 328°
2026-04-23 14:56 59.79067 21.36128 3503 ft 132 kts 343°
2026-04-23 14:56 59.79937 21.35603 3500 ft 129 kts 342°
2026-04-23 14:56 59.80828 21.35687 3497 ft 132 kts 11°
2026-04-23 14:57 59.81701 21.36258 3500 ft 132 kts 11°
2026-04-23 14:57 59.82578 21.36798 3504 ft 132 kts 11°
2026-04-23 14:57 59.83458 21.37330 3500 ft 132 kts 11°
2026-04-23 14:57 59.84339 21.37866 3502 ft 133 kts 11°
2026-04-23 14:58 59.85223 21.38403 3503 ft 133 kts 11°
2026-04-23 14:58 59.86105 21.38942 3504 ft 133 kts 11°
2026-04-23 14:58 59.86988 21.39482 3496 ft 133 kts 11°
2026-04-23 14:58 59.87874 21.40015 3500 ft 133 kts 11°
2026-04-23 14:59 59.88761 21.40545 3501 ft 133 kts 11°
2026-04-23 14:59 59.89647 21.41071 3502 ft 133 kts 11°
2026-04-23 14:59 59.90526 21.41584 3502 ft 133 kts 11°
2026-04-23 14:59 59.91327 21.42509 3491 ft 145 kts 44°
2026-04-23 15:00 59.91775 21.44366 3495 ft 150 kts 57°
2026-04-23 15:00 59.92199 21.46265 3495 ft 150 kts 56°
2026-04-23 15:00 59.92638 21.48162 3499 ft 150 kts 55°
2026-04-23 15:00 59.93077 21.50058 3494 ft 151 kts 56°
2026-04-23 15:01 59.93512 21.51955 3498 ft 151 kts 56°
2026-04-23 15:01 59.93947 21.53852 3503 ft 150 kts 56°
2026-04-23 15:01 59.94381 21.55737 3499 ft 149 kts 56°
2026-04-23 15:01 59.94819 21.57615 3493 ft 149 kts 56°
2026-04-23 15:02 59.95256 21.59494 3496 ft 149 kts 56°
2026-04-23 15:02 59.95699 21.61393 3497 ft 153 kts 56°
2026-04-23 15:02 59.96147 21.63308 3496 ft 151 kts 56°
2026-04-23 15:02 59.96588 21.65215 3490 ft 151 kts 56°
2026-04-23 15:03 59.97031 21.67111 3487 ft 151 kts 56°
2026-04-23 15:03 59.97470 21.68973 3487 ft 149 kts 56°
2026-04-23 15:03 59.97913 21.70841 3487 ft 149 kts 56°
2026-04-23 15:03 59.98356 21.72704 3484 ft 148 kts 56°
2026-04-23 15:04 59.98799 21.74574 3490 ft 149 kts 57°
2026-04-23 15:04 59.99240 21.76442 3487 ft 149 kts 56°
2026-04-23 15:04 59.99744 21.78202 3471 ft 141 kts 37°
2026-04-23 15:04 60.00582 21.78981 3487 ft 132 kts 11°
2026-04-23 15:05 60.01479 21.79318 3485 ft 131 kts
2026-04-23 15:05 60.02382 21.79568 3486 ft 132 kts
2026-04-23 15:05 60.03251 21.80220 3485 ft 136 kts 22°
2026-04-23 15:05 60.04098 21.81082 3488 ft 139 kts 20°
2026-04-23 15:06 60.04974 21.81891 3485 ft 138 kts 19°
2026-04-23 15:06 60.05856 21.82682 3488 ft 139 kts 19°
2026-04-23 15:06 60.06733 21.83471 3488 ft 138 kts 19°
2026-04-23 15:06 60.07603 21.84257 3485 ft 137 kts 18°
2026-04-23 15:07 60.08463 21.85018 3484 ft 137 kts 19°
2026-04-23 15:07 60.09333 21.85788 3484 ft 137 kts 19°
2026-04-23 15:07 60.10201 21.86560 3487 ft 136 kts 19°
2026-04-23 15:07 60.11064 21.87350 3483 ft 136 kts 19°
2026-04-23 15:08 60.11929 21.88126 3483 ft 137 kts 19°
2026-04-23 15:08 60.12794 21.88888 3487 ft 139 kts 19°
2026-04-23 15:08 60.13681 21.89691 3490 ft 140 kts 19°
2026-04-23 15:09 60.15448 21.91281 3492 ft 140 kts 18°
2026-04-23 15:09 60.16342 21.92077 3486 ft 140 kts 19°
2026-04-23 15:09 60.17229 21.92886 3497 ft 140 kts 19°
2026-04-23 15:09 60.18139 21.93710 3349 ft 149 kts 19°
2026-04-23 15:10 60.18781 21.94291 3241 ft 150 kts 19°
2026-04-23 15:10 60.20040 21.95425 3031 ft 149 kts 19°
2026-04-23 15:10 60.20991 21.96275 2882 ft 150 kts 19°
2026-04-23 15:10 60.21949 21.97149 2716 ft 151 kts 19°
2026-04-23 15:11 60.22906 21.98005 2560 ft 151 kts 19°
2026-04-23 15:11 60.23865 21.98863 2400 ft 151 kts 20°
2026-04-23 15:11 60.24816 21.99734 2238 ft 150 kts 19°
2026-04-23 15:11 60.25768 22.00597 2079 ft 151 kts 19°
2026-04-23 15:12 60.26726 22.01461 1921 ft 150 kts 18°
2026-04-23 15:12 60.27681 22.02327 1761 ft 151 kts 19°
2026-04-23 15:12 60.28648 22.03200 1599 ft 153 kts 18°
2026-04-23 15:12 60.29617 22.04083 1438 ft 153 kts 20°
2026-04-23 15:13 60.30592 22.04975 1265 ft 154 kts 19°
2026-04-23 15:13 60.31560 22.05853 1162 ft 150 kts 20°
2026-04-23 15:13 60.32508 22.06714 1156 ft 149 kts 20°
2026-04-23 15:13 60.33444 22.07561 1192 ft 146 kts 19°
2026-04-23 15:14 60.34373 22.08411 1196 ft 147 kts 19°
2026-04-23 15:14 60.35300 22.09258 1191 ft 146 kts 20°
2026-04-23 15:14 60.36217 22.10094 1193 ft 147 kts 19°
2026-04-23 15:14 60.37152 22.10941 1194 ft 148 kts 19°
2026-04-23 15:15 60.38091 22.11807 1196 ft 148 kts 19°
2026-04-23 15:15 60.39027 22.12688 1194 ft 149 kts 22°
2026-04-23 15:15 60.39787 22.14157 1182 ft 157 kts 50°
2026-04-23 15:15 60.40355 22.16042 1186 ft 157 kts 53°
2026-04-23 15:16 60.40965 22.17869 1187 ft 157 kts 48°
2026-04-23 15:16 60.41620 22.19633 1186 ft 158 kts 47°
2026-04-23 15:16 60.42283 22.21402 1187 ft 158 kts 47°
2026-04-23 15:16 60.42944 22.23186 1145 ft 159 kts 47°
2026-04-23 15:17 60.43612 22.24989 1064 ft 161 kts 47°
2026-04-23 15:17 60.44284 22.26799 992 ft 159 kts 47°
2026-04-23 15:17 60.44941 22.28595 981 ft 158 kts 47°
2026-04-23 15:17 60.45594 22.30369 981 ft 157 kts 47°
2026-04-23 15:18 60.46249 22.32125 994 ft 160 kts 47°
2026-04-23 15:18 60.46678 22.34250 977 ft 167 kts 70°
2026-04-23 15:18 60.46871 22.36553 991 ft 166 kts 82°
2026-04-23 15:18 60.47056 22.38849 982 ft 164 kts 71°
2026-04-23 15:19 60.47628 22.40692 966 ft 151 kts 28°
2026-04-23 15:19 60.48588 22.41370 992 ft 145 kts
2026-04-23 15:19 60.49583 22.41718 989 ft 144 kts
2026-04-23 15:19 60.50581 22.41814 988 ft 144 kts 359°
2026-04-23 15:20 60.51239 22.41762 979 ft 143 kts 346°
2026-04-23 15:20 60.51912 22.40178 945 ft 99 kts 286°
2026-04-23 15:20 60.51922 22.38644 781 ft 120 kts 272°
2026-04-23 15:20 60.51860 22.36908 705 ft 124 kts 279°
2026-04-23 15:21 60.51789 22.35140 621 ft 130 kts 269°
2026-04-23 15:21 60.51695 22.33363 479 ft 111 kts 271°
2026-04-23 15:21 60.51654 22.31993 392 ft 91 kts 273°
2026-04-23 15:21 60.51603 22.30808 362 ft 78 kts 272°
2026-04-23 15:22 60.51559 22.29725 311 ft 76 kts 277°
2026-04-23 15:22 60.51514 22.28697 215 ft 65 kts 280°
2026-04-23 15:22 60.51480 22.27859 146 ft 54 kts 270°
2026-04-23 15:22 60.51460 22.27241 147 ft 36 kts 274°
2026-04-23 15:23 60.51383 22.27046 146 ft 17 kts 178°
2026-04-23 15:23 60.51316 22.26909 148 ft 18 kts 267°